Time;durP1;ratioP1;P1;durP2;ratioP2;P2;SDS_P1;SDS_P2;PMS_P1;PMS_P2;Temp;Humidity;BMP_temperature;BMP_pressure;BME280_temperature;BME280_humidity;BME280_pressure;Samples;Min_cycle;Max_cycle;Signal;HPM_P1;HPM_P2
2022/01/26 00:06:46;;;;;;;71.28;43.50;;;;;;;;;;5055221;28;20227;-85
2022/01/26 00:09:14;;;;;;;70.32;43.03;;;;;;;;;;5053555;28;20205;-85
2022/01/26 00:11:42;;;;;;;57.72;41.42;;;;;;;;;;5054035;28;20202;-85
2022/01/26 00:14:13;;;;;;;72.60;45.70;;;;;;;;;;5053499;28;20651;-85
2022/01/26 00:16:42;;;;;;;64.50;42.90;;;;;;;;;;5053150;28;20235;-85
2022/01/26 00:19:11;;;;;;;68.82;45.53;;;;;;;;;;5053288;28;20206;-84
2022/01/26 00:21:44;;;;;;;65.60;42.83;;;;;;;;;;5057685;28;20611;-85
2022/01/26 00:24:27;;;;;;;63.53;42.33;;;;;;;;;;5057190;28;20229;-84
2022/01/26 00:27:22;;;;;;;69.70;44.03;;;;;;;;;;5057829;28;20212;-85
2022/01/26 00:30:00;;;;;;;72.97;44.20;;;;;;;;;;5057938;28;20192;-85
2022/01/26 00:40:51;;;;;;;76.43;46.80;;;;;;;;;;5057180;28;20197;-83
2022/01/26 00:43:24;;;;;;;74.40;46.03;;;;;;;;;;5056906;28;20328;-85
2022/01/26 00:45:56;;;;;;;64.43;41.15;;;;;;;;;;5039179;28;20228;-85
2022/01/26 00:48:24;;;;;;;63.78;42.28;;;;;;;;;;5039323;28;20228;-85
2022/01/26 00:50:53;;;;;;;67.32;43.58;;;;;;;;;;5057331;28;20190;-84
2022/01/26 00:53:23;;;;;;;68.40;43.00;;;;;;;;;;5057029;28;20270;-85
2022/01/26 00:55:51;;;;;;;61.72;40.65;;;;;;;;;;5058325;28;20286;-84
2022/01/26 00:58:20;;;;;;;67.57;43.78;;;;;;;;;;5040430;28;20202;-85
2022/01/26 01:00:48;;;;;;;67.20;44.53;;;;;;;;;;5059966;28;20197;-85
2022/01/26 01:03:15;;;;;;;62.33;43.60;;;;;;;;;;5061013;28;20230;-85
2022/01/26 01:05:51;;;;;;;61.05;43.67;;;;;;;;;;5051638;28;20210;-85
2022/01/26 01:08:21;;;;;;;61.80;41.45;;;;;;;;;;5057827;28;20258;-84
2022/01/26 01:10:50;;;;;;;70.07;43.47;;;;;;;;;;5057245;28;20186;-85
2022/01/26 01:13:20;;;;;;;61.42;43.10;;;;;;;;;;5057724;28;20194;-84
2022/01/26 01:15:50;;;;;;;61.13;42.90;;;;;;;;;;5040885;28;20297;-84
2022/01/26 01:18:22;;;;;;;60.03;40.70;;;;;;;;;;5056785;28;20216;-83
2022/01/26 01:21:15;;;;;;;65.82;44.53;;;;;;;;;;5038393;28;20202;-85
2022/01/26 01:24:15;;;;;;;56.53;40.67;;;;;;;;;;5057881;28;20221;-84
2022/01/26 01:26:54;;;;;;;60.88;43.10;;;;;;;;;;5056668;28;20192;-85
2022/01/26 01:29:24;;;;;;;61.42;40.38;;;;;;;;;;5056755;28;20198;-86
2022/01/26 01:31:55;;;;;;;57.55;39.67;;;;;;;;;;5054813;28;20620;-85
2022/01/26 01:34:26;;;;;;;53.30;38.67;;;;;;;;;;5056674;28;20197;-85
2022/01/26 01:36:54;;;;;;;58.25;39.85;;;;;;;;;;5056270;28;20203;-84
2022/01/26 01:39:22;;;;;;;56.85;41.65;;;;;;;;;;5055951;28;20220;-83
2022/01/26 01:41:51;;;;;;;57.20;39.30;;;;;;;;;;5056492;28;20596;-85
2022/01/26 01:44:18;;;;;;;67.40;42.47;;;;;;;;;;5057902;28;20624;-85
2022/01/26 01:46:46;;;;;;;64.20;40.20;;;;;;;;;;5056132;28;20190;-85
2022/01/26 01:49:16;;;;;;;57.65;39.60;;;;;;;;;;5055906;28;20672;-85
2022/01/26 01:51:49;;;;;;;63.90;41.72;;;;;;;;;;5056864;28;20651;-85
2022/01/26 01:54:18;;;;;;;55.67;39.08;;;;;;;;;;5055837;28;20639;-84
2022/01/26 01:56:50;;;;;;;61.95;41.05;;;;;;;;;;5058324;28;20262;-85
2022/01/26 01:59:17;;;;;;;56.83;36.90;;;;;;;;;;5061234;28;20190;-85
2022/01/26 02:01:46;;;;;;;60.45;39.15;;;;;;;;;;5058100;28;20524;-85
2022/01/26 02:04:14;;;;;;;59.63;39.92;;;;;;;;;;5058648;28;20236;-85
2022/01/26 02:06:43;;;;;;;63.05;42.58;;;;;;;;;;5059576;28;20189;-85
2022/01/26 02:09:14;;;;;;;59.63;42.50;;;;;;;;;;5067563;28;20176;-85
2022/01/26 02:11:48;;;;;;;64.20;41.80;;;;;;;;;;5075932;28;20175;-85
2022/01/26 02:14:23;;;;;;;58.13;40.80;;;;;;;;;;5059589;28;20197;-85
2022/01/26 02:16:56;;;;;;;58.72;40.83;;;;;;;;;;5040345;28;20204;-85
2022/01/26 02:19:54;;;;;;;60.55;41.65;;;;;;;;;;5058767;28;20204;-85
2022/01/26 02:53:00;;;;;;;70.57;44.88;;;;;;;;;;5033395;28;20251;-85
2022/01/26 02:55:39;;;;;;;67.80;43.55;;;;;;;;;;5054296;28;20204;-86
2022/01/26 02:58:40;;;;;;;64.43;44.63;;;;;;;;;;5054016;28;20217;-85
2022/01/26 03:01:30;;;;;;;58.15;41.72;;;;;;;;;;5054391;28;20276;-84
2022/01/26 03:04:04;;;;;;;67.80;42.40;;;;;;;;;;5053691;28;20328;-84
2022/01/26 03:06:38;;;;;;;58.85;39.55;;;;;;;;;;5053949;28;20207;-85
2022/01/26 03:09:11;;;;;;;60.72;41.72;;;;;;;;;;5054147;28;20622;-85
2022/01/26 03:11:42;;;;;;;65.45;42.00;;;;;;;;;;5053875;28;20682;-85
2022/01/26 03:14:17;;;;;;;55.58;37.67;;;;;;;;;;5054359;28;20202;-85
2022/01/26 03:16:50;;;;;;;54.60;37.55;;;;;;;;;;5053908;28;20186;-84
2022/01/26 03:19:22;;;;;;;50.35;36.67;;;;;;;;;;5054026;28;20190;-85
2022/01/26 03:22:05;;;;;;;60.53;41.15;;;;;;;;;;5053719;28;20206;-84
2022/01/26 03:30:05;;;;;;;53.97;37.15;;;;;;;;;;5052538;28;20239;-85
2022/01/26 03:32:58;;;;;;;64.25;40.38;;;;;;;;;;5053943;28;20270;-85
2022/01/26 03:35:39;;;;;;;60.33;37.75;;;;;;;;;;5053946;28;20547;-85
2022/01/26 03:38:08;;;;;;;62.85;42.33;;;;;;;;;;5053672;28;20662;-85
2022/01/26 03:40:38;;;;;;;55.15;38.70;;;;;;;;;;5053729;28;20607;-86
2022/01/26 03:43:07;;;;;;;58.10;39.28;;;;;;;;;;5053292;28;20628;-85
2022/01/26 03:45:34;;;;;;;60.60;39.60;;;;;;;;;;5053073;28;20236;-85
2022/01/26 03:48:02;;;;;;;62.58;41.65;;;;;;;;;;5053465;28;20196;-86
2022/01/26 03:50:29;;;;;;;53.80;37.63;;;;;;;;;;5053487;28;20234;-85
2022/01/26 03:52:56;;;;;;;73.10;44.03;;;;;;;;;;5053390;28;20195;-86
2022/01/26 03:55:24;;;;;;;66.32;42.45;;;;;;;;;;5052707;28;20239;-85
2022/01/26 03:57:51;;;;;;;72.25;46.33;;;;;;;;;;5053331;28;20255;-85
2022/01/26 04:00:20;;;;;;;66.53;43.80;;;;;;;;;;5053324;28;20573;-85
2022/01/26 04:02:48;;;;;;;84.05;49.78;;;;;;;;;;5053372;28;20240;-83
2022/01/26 04:05:15;;;;;;;80.05;48.85;;;;;;;;;;5053191;28;20282;-85
2022/01/26 04:07:44;;;;;;;76.15;46.70;;;;;;;;;;5053302;28;20197;-84
2022/01/26 04:10:20;;;;;;;77.40;45.55;;;;;;;;;;5053359;28;20188;-85
2022/01/26 04:12:47;;;;;;;83.18;45.83;;;;;;;;;;5053427;28;20193;-85
2022/01/26 04:15:24;;;;;;;82.78;49.42;;;;;;;;;;5053328;28;20187;-85
2022/01/26 04:17:52;;;;;;;73.30;44.50;;;;;;;;;;5053045;28;20209;-85
2022/01/26 04:20:23;;;;;;;84.35;47.53;;;;;;;;;;5053110;28;20240;-85
2022/01/26 04:23:04;;;;;;;68.45;40.95;;;;;;;;;;5053219;28;20283;-85
2022/01/26 04:25:31;;;;;;;85.93;46.35;;;;;;;;;;5052860;28;20225;-85
2022/01/26 04:28:04;;;;;;;87.05;48.65;;;;;;;;;;5018807;28;20211;-85
2022/01/26 04:30:32;;;;;;;91.05;48.25;;;;;;;;;;5053377;28;20190;-85
2022/01/26 04:33:04;;;;;;;86.32;50.78;;;;;;;;;;5052866;28;20200;-85
2022/01/26 04:35:31;;;;;;;96.03;49.85;;;;;;;;;;5053442;28;20563;-85
2022/01/26 04:38:13;;;;;;;82.20;51.30;;;;;;;;;;5053192;28;20189;-85
2022/01/26 04:40:42;;;;;;;84.38;49.88;;;;;;;;;;5053003;28;20201;-85
2022/01/26 04:43:16;;;;;;;93.85;52.28;;;;;;;;;;5053087;28;20215;-85
2022/01/26 04:45:43;;;;;;;96.97;52.17;;;;;;;;;;5052431;28;20241;-84
2022/01/26 04:48:12;;;;;;;96.10;50.50;;;;;;;;;;5052906;28;20188;-85
2022/01/26 04:50:39;;;;;;;95.00;52.83;;;;;;;;;;5053058;28;20242;-85
2022/01/26 04:53:07;;;;;;;102.82;54.47;;;;;;;;;;5053103;28;20239;-85
2022/01/26 04:55:34;;;;;;;87.03;48.53;;;;;;;;;;5035145;28;20263;-85
2022/01/26 04:58:01;;;;;;;87.70;51.22;;;;;;;;;;5035275;28;20258;-85
2022/01/26 05:00:29;;;;;;;97.57;53.05;;;;;;;;;;5052876;28;20204;-85
2022/01/26 05:02:56;;;;;;;48.60;36.53;;;;;;;;;;5052536;28;20237;-86
2022/01/26 05:05:25;;;;;;;94.28;53.85;;;;;;;;;;5052963;28;20216;-85
2022/01/26 05:07:53;;;;;;;93.63;53.30;;;;;;;;;;5056450;28;20201;-85
2022/01/26 05:10:20;;;;;;;98.05;54.13;;;;;;;;;;5056205;28;20666;-85
2022/01/26 05:12:48;;;;;;;99.00;55.50;;;;;;;;;;5056421;28;20192;-85
2022/01/26 05:15:17;;;;;;;81.70;48.13;;;;;;;;;;5056151;28;20194;-85
2022/01/26 05:17:44;;;;;;;81.65;53.20;;;;;;;;;;5056432;28;20197;-85
2022/01/26 05:20:13;;;;;;;87.75;52.88;;;;;;;;;;5056090;28;20206;-83
2022/01/26 05:22:44;;;;;;;101.13;57.45;;;;;;;;;;5056004;28;20209;-85
2022/01/26 05:25:11;;;;;;;89.22;49.15;;;;;;;;;;5055965;28;20230;-85
2022/01/26 05:27:39;;;;;;;95.75;57.42;;;;;;;;;;5055947;28;20208;-85
2022/01/26 05:30:07;;;;;;;108.70;55.30;;;;;;;;;;5056025;28;20193;-85
2022/01/26 05:32:35;;;;;;;109.13;58.40;;;;;;;;;;5056150;28;20197;-84
2022/01/26 05:35:02;;;;;;;97.25;55.75;;;;;;;;;;5055938;28;20617;-85
2022/01/26 05:37:31;;;;;;;96.38;55.88;;;;;;;;;;5056407;28;20199;-85
2022/01/26 05:40:02;;;;;;;95.80;56.70;;;;;;;;;;5021847;28;20205;-84
2022/01/26 05:42:29;;;;;;;111.55;59.80;;;;;;;;;;5055508;28;20722;-84
2022/01/26 05:45:01;;;;;;;88.30;54.33;;;;;;;;;;5055381;28;20237;-84
2022/01/26 05:47:31;;;;;;;98.85;55.42;;;;;;;;;;5055564;28;20196;-85
2022/01/26 05:49:58;;;;;;;101.20;58.55;;;;;;;;;;5055372;28;20209;-85
2022/01/26 05:52:26;;;;;;;101.22;58.88;;;;;;;;;;5055522;28;20185;-85
2022/01/26 05:54:53;;;;;;;88.95;52.38;;;;;;;;;;5055408;28;20193;-85
2022/01/26 05:57:22;;;;;;;78.47;49.28;;;;;;;;;;5037638;28;20206;-85
2022/01/26 05:59:52;;;;;;;112.18;59.05;;;;;;;;;;5055668;28;20185;-85
2022/01/26 06:02:19;;;;;;;97.60;57.08;;;;;;;;;;5037564;28;20209;-84
2022/01/26 06:04:47;;;;;;;93.63;54.70;;;;;;;;;;5054850;28;20244;-84
2022/01/26 06:07:15;;;;;;;86.45;55.45;;;;;;;;;;5055384;28;20211;-85
2022/01/26 06:09:42;;;;;;;94.55;53.70;;;;;;;;;;5055260;28;20198;-85
2022/01/26 06:12:10;;;;;;;92.63;52.17;;;;;;;;;;5054994;28;20205;-85
2022/01/26 06:14:39;;;;;;;67.72;43.72;;;;;;;;;;5054904;28;20255;-85
2022/01/26 06:17:07;;;;;;;97.35;55.42;;;;;;;;;;5054048;28;20188;-84
2022/01/26 06:19:34;;;;;;;103.75;57.72;;;;;;;;;;5054798;28;20205;-84
2022/01/26 06:22:02;;;;;;;99.13;55.83;;;;;;;;;;5055024;28;20589;-84
2022/01/26 06:24:29;;;;;;;92.88;55.17;;;;;;;;;;5054140;28;20644;-84
2022/01/26 06:26:56;;;;;;;96.63;52.85;;;;;;;;;;5054637;28;20195;-84
2022/01/26 06:29:24;;;;;;;90.00;53.53;;;;;;;;;;5054733;28;20194;-85
2022/01/26 06:31:52;;;;;;;60.60;38.30;;;;;;;;;;5054302;28;20211;-84
2022/01/26 06:34:20;;;;;;;94.35;51.03;;;;;;;;;;5054445;28;20212;-89
2022/01/26 06:36:47;;;;;;;75.15;42.45;;;;;;;;;;5054542;28;20199;-83
2022/01/26 06:39:15;;;;;;;99.50;54.10;;;;;;;;;;5054145;28;20197;-84
2022/01/26 06:41:48;;;;;;;84.85;49.45;;;;;;;;;;5054712;28;20204;-81
2022/01/26 06:44:21;;;;;;;82.20;48.15;;;;;;;;;;5054669;28;20592;-86
2022/01/26 06:46:57;;;;;;;71.70;39.53;;;;;;;;;;5054344;28;20212;-84
2022/01/26 06:49:32;;;;;;;59.75;39.45;;;;;;;;;;5036594;28;20288;-84
2022/01/26 06:51:59;;;;;;;74.07;45.13;;;;;;;;;;5054238;28;20192;-84
2022/01/26 06:54:27;;;;;;;59.22;37.67;;;;;;;;;;5054293;28;20204;-83
2022/01/26 06:56:54;;;;;;;94.00;49.70;;;;;;;;;;5054358;28;20208;-85
2022/01/26 06:59:24;;;;;;;75.63;44.00;;;;;;;;;;5054073;28;20201;-85
2022/01/26 07:01:51;;;;;;;45.95;36.35;;;;;;;;;;5020301;28;20232;-85
2022/01/26 07:04:18;;;;;;;97.15;50.75;;;;;;;;;;5053838;28;20571;-86
2022/01/26 07:06:47;;;;;;;88.65;48.92;;;;;;;;;;5036799;28;20217;-85
2022/01/26 07:09:16;;;;;;;70.50;42.10;;;;;;;;;;5053992;28;20594;-85
2022/01/26 07:11:45;;;;;;;88.80;48.80;;;;;;;;;;5054364;28;20527;-86
2022/01/26 07:14:21;;;;;;;114.93;57.25;;;;;;;;;;5054321;28;20203;-86
2022/01/26 07:20:01;;;;;;;62.08;38.53;;;;;;;;;;5054048;28;20570;-86
2022/01/26 07:22:30;;;;;;;99.70;53.53;;;;;;;;;;5035975;28;20704;-85
2022/01/26 07:24:57;;;;;;;50.55;37.83;;;;;;;;;;5053421;28;20200;-84
2022/01/26 07:27:25;;;;;;;98.40;52.38;;;;;;;;;;5053668;28;20192;-84
2022/01/26 07:29:53;;;;;;;90.90;51.88;;;;;;;;;;5053302;28;20438;-84
2022/01/26 07:32:20;;;;;;;92.25;49.60;;;;;;;;;;5053281;28;20215;-84
2022/01/26 07:34:48;;;;;;;59.80;39.33;;;;;;;;;;5053173;28;20277;-83
2022/01/26 07:37:17;;;;;;;89.15;48.72;;;;;;;;;;5053468;28;20204;-84
2022/01/26 07:39:49;;;;;;;91.80;51.60;;;;;;;;;;5035490;28;20200;-83
2022/01/26 07:42:17;;;;;;;62.53;37.20;;;;;;;;;;5053568;28;20604;-84
2022/01/26 07:44:44;;;;;;;87.20;51.55;;;;;;;;;;5052782;28;20216;-84
2022/01/26 07:47:11;;;;;;;82.80;45.67;;;;;;;;;;5053098;28;20992;-83
2022/01/26 07:49:39;;;;;;;50.08;37.08;;;;;;;;;;5053216;28;20232;-84
2022/01/26 07:52:06;;;;;;;83.03;48.78;;;;;;;;;;5053203;28;20571;-84
2022/01/26 07:54:34;;;;;;;60.40;43.65;;;;;;;;;;5052997;28;20206;-85
2022/01/26 07:57:03;;;;;;;88.57;49.55;;;;;;;;;;5035048;28;20712;-84
2022/01/26 07:59:30;;;;;;;97.57;54.10;;;;;;;;;;5052904;28;20198;-84
2022/01/26 08:01:57;;;;;;;100.07;53.88;;;;;;;;;;5053330;28;20215;-84
2022/01/26 08:04:25;;;;;;;98.43;50.58;;;;;;;;;;5052872;28;20602;-84
2022/01/26 08:06:52;;;;;;;100.40;50.55;;;;;;;;;;5052914;28;20227;-83
2022/01/26 08:09:20;;;;;;;107.63;54.72;;;;;;;;;;5034900;28;20200;-83
2022/01/26 08:11:47;;;;;;;63.33;41.40;;;;;;;;;;5052875;28;20565;-83
2022/01/26 08:14:16;;;;;;;100.43;53.90;;;;;;;;;;5052639;28;20199;-84
2022/01/26 08:16:44;;;;;;;96.45;52.35;;;;;;;;;;5052437;28;20208;-83
2022/01/26 08:19:12;;;;;;;93.38;51.88;;;;;;;;;;5052993;28;20193;-84
2022/01/26 08:21:40;;;;;;;98.07;53.65;;;;;;;;;;5052764;28;20200;-84
2022/01/26 08:24:13;;;;;;;62.08;40.97;;;;;;;;;;5052738;28;20196;-83
2022/01/26 08:26:44;;;;;;;81.07;45.17;;;;;;;;;;5052701;28;20228;-84
2022/01/26 08:29:16;;;;;;;91.68;51.03;;;;;;;;;;5052948;28;20210;-84
2022/01/26 08:31:45;;;;;;;96.50;51.90;;;;;;;;;;5052559;28;20248;-84
2022/01/26 08:34:13;;;;;;;78.35;45.00;;;;;;;;;;5052719;28;20210;-86
2022/01/26 08:36:40;;;;;;;67.75;40.00;;;;;;;;;;5052520;28;20613;-84
2022/01/26 08:39:07;;;;;;;63.45;40.28;;;;;;;;;;5053107;28;20204;-85
2022/01/26 08:41:35;;;;;;;82.18;44.20;;;;;;;;;;5055304;28;20209;-84
2022/01/26 08:44:02;;;;;;;87.43;47.30;;;;;;;;;;5056566;28;20252;-85
2022/01/26 08:46:30;;;;;;;100.53;54.90;;;;;;;;;;5056428;28;20224;-84
2022/01/26 08:48:59;;;;;;;99.78;51.28;;;;;;;;;;5056109;28;20650;-85
2022/01/26 08:51:29;;;;;;;69.78;44.55;;;;;;;;;;5039348;28;20246;-85
2022/01/26 08:53:56;;;;;;;45.13;36.25;;;;;;;;;;5056463;28;20239;-84
2022/01/26 08:56:23;;;;;;;63.05;40.92;;;;;;;;;;5056688;28;20227;-84
2022/01/26 08:58:51;;;;;;;63.90;40.92;;;;;;;;;;5056504;28;20199;-84
2022/01/26 09:01:18;;;;;;;97.28;51.38;;;;;;;;;;5056552;28;20607;-92
2022/01/26 09:03:46;;;;;;;102.35;53.63;;;;;;;;;;5056654;28;20227;-92
2022/01/26 09:06:15;;;;;;;63.85;42.00;;;;;;;;;;5056856;28;20233;-92
2022/01/26 09:08:45;;;;;;;66.32;42.40;;;;;;;;;;5057102;28;20619;-94
2022/01/26 09:11:12;;;;;;;100.75;53.28;;;;;;;;;;5056993;28;20600;-96
2022/01/26 09:13:40;;;;;;;87.45;48.67;;;;;;;;;;5057043;28;20627;-96
2022/01/26 09:16:09;;;;;;;101.68;54.58;;;;;;;;;;5038692;28;20251;-95
2022/01/26 09:18:46;;;;;;;99.97;53.22;;;;;;;;;;5056933;28;20192;-96
2022/01/26 09:21:15;;;;;;;53.10;35.55;;;;;;;;;;5056725;28;20561;-94
2022/01/26 09:23:42;;;;;;;79.53;41.47;;;;;;;;;;5056783;28;20660;-95
2022/01/26 09:26:10;;;;;;;93.95;51.38;;;;;;;;;;5056569;28;20627;-93
2022/01/26 09:28:37;;;;;;;96.35;53.33;;;;;;;;;;5056580;28;20270;-86
2022/01/26 09:31:05;;;;;;;97.50;53.53;;;;;;;;;;5056410;28;20192;-87
2022/01/26 09:33:32;;;;;;;92.13;51.72;;;;;;;;;;5056270;28;20189;-87
2022/01/26 09:36:00;;;;;;;97.55;51.13;;;;;;;;;;5056259;28;20605;-87
2022/01/26 09:38:28;;;;;;;96.30;55.03;;;;;;;;;;5056455;28;20204;-87
2022/01/26 09:40:56;;;;;;;98.22;52.50;;;;;;;;;;5056058;28;20200;-87
2022/01/26 09:43:23;;;;;;;99.05;55.00;;;;;;;;;;5038183;28;20274;-87
2022/01/26 09:45:50;;;;;;;98.13;59.25;;;;;;;;;;5055868;28;20234;-87
2022/01/26 09:48:18;;;;;;;90.78;51.05;;;;;;;;;;5056039;28;20189;-87
2022/01/26 09:50:47;;;;;;;79.20;45.38;;;;;;;;;;5055802;28;20635;-86
2022/01/26 09:53:20;;;;;;;117.53;60.95;;;;;;;;;;5054680;28;20204;-87
2022/01/26 09:55:48;;;;;;;92.38;49.08;;;;;;;;;;5038624;28;20284;-86
2022/01/26 09:58:16;;;;;;;104.18;55.63;;;;;;;;;;5055761;28;20189;-86
2022/01/26 10:00:43;;;;;;;115.13;60.25;;;;;;;;;;5055460;28;20193;-87
2022/01/26 10:03:10;;;;;;;112.95;58.88;;;;;;;;;;5055248;28;20288;-86
2022/01/26 10:05:42;;;;;;;110.18;55.05;;;;;;;;;;5055612;28;20211;-86
2022/01/26 10:08:22;;;;;;;113.60;60.00;;;;;;;;;;5037995;28;20237;-87
2022/01/26 10:19:20;;;;;;;109.22;58.63;;;;;;;;;;5055403;28;20645;-86
2022/01/26 10:21:48;;;;;;;115.32;57.03;;;;;;;;;;5055176;28;20228;-86
2022/01/26 10:24:16;;;;;;;101.30;52.83;;;;;;;;;;5055347;28;20202;-86
2022/01/26 10:26:50;;;;;;;100.50;52.47;;;;;;;;;;5055264;28;20312;-86
2022/01/26 10:29:17;;;;;;;99.75;53.95;;;;;;;;;;5055522;28;20224;-86
2022/01/26 10:31:45;;;;;;;103.63;54.15;;;;;;;;;;5055485;28;20201;-90
2022/01/26 10:34:13;;;;;;;101.38;54.75;;;;;;;;;;5055256;28;20192;-87
2022/01/26 10:36:41;;;;;;;105.43;59.15;;;;;;;;;;5055159;28;20201;-87
2022/01/26 10:39:11;;;;;;;105.25;58.25;;;;;;;;;;5055009;28;20192;-87
2022/01/26 10:41:39;;;;;;;116.70;60.90;;;;;;;;;;5055028;28;20602;-86
2022/01/26 10:44:08;;;;;;;112.50;59.53;;;;;;;;;;5054751;28;20220;-87
2022/01/26 10:46:39;;;;;;;107.53;57.60;;;;;;;;;;5054709;28;20236;-86
2022/01/26 10:49:14;;;;;;;96.32;54.70;;;;;;;;;;5054946;28;20188;-87
2022/01/26 10:52:00;;;;;;;95.53;56.22;;;;;;;;;;5054971;28;20193;-87
2022/01/26 10:54:37;;;;;;;100.00;57.38;;;;;;;;;;5054912;28;20193;-87
2022/01/26 10:57:05;;;;;;;69.60;40.65;;;;;;;;;;5037073;28;20760;-87
2022/01/26 10:59:35;;;;;;;110.05;58.90;;;;;;;;;;5037066;28;20240;-87
2022/01/26 11:02:04;;;;;;;99.57;55.83;;;;;;;;;;5053924;28;20690;-85
2022/01/26 11:04:33;;;;;;;91.97;51.40;;;;;;;;;;5053596;28;21108;-84
2022/01/26 11:07:01;;;;;;;85.35;51.97;;;;;;;;;;5054027;28;20612;-87
2022/01/26 11:09:30;;;;;;;69.88;47.90;;;;;;;;;;5054409;28;20217;-86
2022/01/26 11:12:01;;;;;;;105.82;55.88;;;;;;;;;;5054505;28;20760;-93
2022/01/26 11:14:38;;;;;;;109.03;59.58;;;;;;;;;;5054071;28;20192;-83
2022/01/26 11:17:07;;;;;;;105.97;55.33;;;;;;;;;;5054061;28;20583;-86
2022/01/26 11:19:41;;;;;;;97.85;55.67;;;;;;;;;;5053963;28;20591;-87
2022/01/26 11:22:09;;;;;;;105.57;57.88;;;;;;;;;;5054152;28;20232;-87
2022/01/26 11:24:43;;;;;;;100.28;57.42;;;;;;;;;;5037055;28;20209;-87
2022/01/26 11:27:11;;;;;;;97.30;55.17;;;;;;;;;;5037234;28;20277;-88
2022/01/26 11:29:43;;;;;;;86.85;50.25;;;;;;;;;;5055060;28;20200;-89
2022/01/26 11:32:18;;;;;;;105.32;56.25;;;;;;;;;;5056817;28;20189;-90
2022/01/26 11:34:49;;;;;;;110.53;59.28;;;;;;;;;;5056282;28;20203;-86
2022/01/26 11:37:19;;;;;;;117.13;58.55;;;;;;;;;;5054374;28;20184;-86
2022/01/26 11:45:34;;;;;;;108.25;58.47;;;;;;;;;;5054048;28;20265;-85
2022/01/26 11:48:05;;;;;;;97.55;54.35;;;;;;;;;;5053634;28;20217;-85
2022/01/26 11:50:33;;;;;;;115.40;58.65;;;;;;;;;;5054453;28;20291;-85
2022/01/26 11:53:01;;;;;;;117.75;58.45;;;;;;;;;;5054185;28;20197;-85
2022/01/26 11:55:32;;;;;;;97.75;53.50;;;;;;;;;;5054816;28;20205;-86
2022/01/26 11:58:10;;;;;;;129.50;63.67;;;;;;;;;;5055667;28;20256;-86
2022/01/26 12:00:45;;;;;;;115.47;59.53;;;;;;;;;;5055502;28;20562;-86
2022/01/26 12:03:43;;;;;;;115.07;58.05;;;;;;;;;;5054962;28;20336;-86
2022/01/26 12:06:18;;;;;;;114.60;63.38;;;;;;;;;;5055549;28;20292;-85
2022/01/26 12:08:45;;;;;;;120.72;63.55;;;;;;;;;;5054169;28;20279;-86
2022/01/26 12:11:13;;;;;;;113.55;59.60;;;;;;;;;;5055193;28;20204;-87
2022/01/26 12:13:40;;;;;;;119.75;63.28;;;;;;;;;;5056290;28;20192;-85
2022/01/26 12:16:11;;;;;;;124.35;62.72;;;;;;;;;;5058440;28;20537;-86
2022/01/26 12:18:46;;;;;;;115.75;60.60;;;;;;;;;;5061683;28;20208;-85
2022/01/26 12:32:36;;;;;;;125.65;67.10;;;;;;;;;;5058948;28;20193;-86
2022/01/26 12:35:27;;;;;;;119.20;56.75;;;;;;;;;;5059269;28;20376;-86
2022/01/26 12:38:00;;;;;;;127.97;62.92;;;;;;;;;;5059566;28;20661;-85
2022/01/26 12:43:14;;;;;;;129.93;66.18;;;;;;;;;;5059093;28;20231;-85
2022/01/26 12:45:41;;;;;;;122.88;63.30;;;;;;;;;;5059030;28;20265;-86
2022/01/26 12:48:10;;;;;;;128.40;61.00;;;;;;;;;;5057929;28;20237;-86
2022/01/26 12:50:41;;;;;;;129.68;64.53;;;;;;;;;;5057973;28;20296;-85
2022/01/26 12:53:08;;;;;;;117.03;58.90;;;;;;;;;;5059213;28;20217;-85
2022/01/26 12:55:37;;;;;;;123.90;62.83;;;;;;;;;;5059233;28;20590;-85
2022/01/26 12:58:05;;;;;;;132.43;65.05;;;;;;;;;;5059171;28;20204;-87
2022/01/26 13:00:39;;;;;;;108.03;59.67;;;;;;;;;;5058949;28;20212;-88
2022/01/26 13:03:10;;;;;;;105.78;54.50;;;;;;;;;;5058525;28;20224;-87
2022/01/26 13:05:37;;;;;;;125.88;58.10;;;;;;;;;;5057894;28;20204;-85
2022/01/26 13:08:07;;;;;;;124.57;61.15;;;;;;;;;;5058827;28;20608;-86
2022/01/26 13:10:35;;;;;;;106.05;56.28;;;;;;;;;;5058072;28;20205;-85
2022/01/26 13:13:17;;;;;;;123.72;64.65;;;;;;;;;;5058295;28;20198;-85
2022/01/26 13:15:53;;;;;;;107.38;51.38;;;;;;;;;;5058291;28;20246;-85
2022/01/26 13:18:44;;;;;;;123.78;62.03;;;;;;;;;;5059124;28;20236;-85
2022/01/26 13:21:39;;;;;;;118.28;58.65;;;;;;;;;;5059329;28;20244;-86
2022/01/26 13:24:27;;;;;;;131.40;64.30;;;;;;;;;;5059400;28;20236;-86
2022/01/26 13:27:04;;;;;;;131.82;62.67;;;;;;;;;;5059860;28;20243;-86
2022/01/26 13:29:42;;;;;;;86.88;44.85;;;;;;;;;;5059575;28;20201;-86
2022/01/26 13:38:08;;;;;;;107.70;56.10;;;;;;;;;;5063365;28;20189;-86
2022/01/26 13:49:22;;;;;;;128.63;59.53;;;;;;;;;;5056553;28;20678;-87
2022/01/26 13:52:02;;;;;;;123.80;57.47;;;;;;;;;;5056244;28;20192;-85
2022/01/26 14:00:10;;;;;;;77.35;44.45;;;;;;;;;;5046997;28;20237;-86
2022/01/26 14:02:38;;;;;;;108.75;56.92;;;;;;;;;;5063347;28;20200;-84
2022/01/26 14:05:06;;;;;;;107.68;52.80;;;;;;;;;;5074889;28;20200;-86
2022/01/26 14:07:33;;;;;;;66.18;41.20;;;;;;;;;;5078260;28;20227;-86
2022/01/26 14:10:07;;;;;;;78.22;42.88;;;;;;;;;;5080021;28;20255;-86
2022/01/26 14:12:40;;;;;;;121.68;53.40;;;;;;;;;;5079670;28;20187;-86
2022/01/26 14:15:09;;;;;;;108.80;51.65;;;;;;;;;;5080708;28;20711;-86
2022/01/26 14:17:53;;;;;;;119.28;54.75;;;;;;;;;;5081382;28;20589;-86
2022/01/26 14:20:42;;;;;;;109.43;50.35;;;;;;;;;;5082386;28;20218;-86
2022/01/26 14:23:30;;;;;;;70.82;41.90;;;;;;;;;;5077946;28;20685;-87
2022/01/26 14:25:59;;;;;;;79.45;42.22;;;;;;;;;;5081334;28;20181;-88
2022/01/26 14:28:34;;;;;;;111.20;55.40;;;;;;;;;;5081212;28;20231;-86
2022/01/26 14:33:57;;;;;;;91.90;48.03;;;;;;;;;;5085882;28;20203;-88
2022/01/26 14:36:43;;;;;;;97.05;49.40;;;;;;;;;;5085776;28;20696;-87
2022/01/26 14:39:42;;;;;;;66.05;37.65;;;;;;;;;;5086545;28;20276;-88
2022/01/26 14:53:54;;;;;;;98.90;50.30;;;;;;;;;;5085840;28;20211;-86
2022/01/26 15:00:04;;;;;;;83.90;46.85;;;;;;;;;;5088408;28;20265;-85
2022/01/26 15:40:29;;;;;;;84.32;43.45;;;;;;;;;;5039777;28;20220;-85
2022/01/26 15:51:49;;;;;;;71.95;42.10;;;;;;;;;;5056863;28;20208;-82
2022/01/26 15:57:38;;;;;;;92.25;48.72;;;;;;;;;;5059372;28;20703;-87
2022/01/26 16:05:57;;;;;;;75.70;44.65;;;;;;;;;;5058176;28;20227;-84
2022/01/26 16:08:36;;;;;;;107.72;52.53;;;;;;;;;;5058418;28;20243;-85
2022/01/26 16:16:56;;;;;;;101.28;54.40;;;;;;;;;;5032417;28;20212;-85
2022/01/26 16:28:32;;;;;;;121.10;55.47;;;;;;;;;;5086361;28;20239;-91
2022/01/26 16:44:21;;;;;;;101.47;51.53;;;;;;;;;;5084862;28;20283;-85
2022/01/26 17:24:34;;;;;;;98.20;52.83;;;;;;;;;;5085571;28;20223;-84
2022/01/26 17:46:58;;;;;;;111.95;53.63;;;;;;;;;;5070796;28;20226;-84
2022/01/26 18:17:44;;;;;;;107.55;52.42;;;;;;;;;;5011658;28;20230;-83
2022/01/26 18:26:12;;;;;;;101.40;51.20;;;;;;;;;;5007553;28;20220;-83
2022/01/26 18:50:43;;;;;;;106.00;53.67;;;;;;;;;;5032580;28;20216;-81
2022/01/26 18:53:14;;;;;;;95.53;52.22;;;;;;;;;;5045786;28;20236;-84
2022/01/26 18:55:43;;;;;;;108.05;56.15;;;;;;;;;;5039505;28;20296;-81
2022/01/26 18:58:11;;;;;;;104.22;53.53;;;;;;;;;;5032309;28;20268;-83
2022/01/26 19:00:44;;;;;;;107.25;53.90;;;;;;;;;;5037564;28;20239;-84
2022/01/26 19:03:11;;;;;;;107.25;53.25;;;;;;;;;;5044762;28;20235;-84
2022/01/26 19:05:41;;;;;;;111.28;53.95;;;;;;;;;;5078357;28;20209;-84
2022/01/26 19:08:10;;;;;;;74.55;46.10;;;;;;;;;;5085722;28;20222;-84
2022/01/26 19:10:37;;;;;;;112.57;53.58;;;;;;;;;;5082376;28;20217;-82
2022/01/26 19:13:06;;;;;;;92.40;50.35;;;;;;;;;;5076694;28;20223;-84
2022/01/26 19:15:35;;;;;;;66.82;42.75;;;;;;;;;;5079510;28;20207;-84
2022/01/26 19:18:09;;;;;;;104.90;53.58;;;;;;;;;;5077250;28;20223;-83
2022/01/26 19:20:48;;;;;;;116.13;53.63;;;;;;;;;;5072144;28;20210;-84
2022/01/26 19:23:31;;;;;;;87.95;50.20;;;;;;;;;;5071365;28;20202;-83
2022/01/26 19:26:03;;;;;;;81.45;41.35;;;;;;;;;;5075938;28;20202;-83
2022/01/26 19:28:36;;;;;;;121.35;57.97;;;;;;;;;;5073964;28;20236;-83
2022/01/26 19:45:32;;;;;;;65.28;40.28;;;;;;;;;;5015473;28;20787;-84
2022/01/26 19:50:49;;;;;;;103.07;51.90;;;;;;;;;;4958305;28;20864;-84
2022/01/26 19:53:17;;;;;;;112.95;54.22;;;;;;;;;;5010152;28;20693;-83
2022/01/26 19:55:44;;;;;;;63.58;41.65;;;;;;;;;;5011289;28;20202;-84
2022/01/26 19:58:12;;;;;;;45.22;34.90;;;;;;;;;;5011796;28;20633;-84
2022/01/26 20:00:43;;;;;;;85.88;46.15;;;;;;;;;;5009288;28;20555;-84
2022/01/26 20:03:11;;;;;;;101.43;52.65;;;;;;;;;;5008703;28;20322;-84
2022/01/26 20:05:40;;;;;;;61.17;39.97;;;;;;;;;;4997511;28;20346;-84
2022/01/26 20:08:14;;;;;;;69.10;41.63;;;;;;;;;;4985459;28;20692;-83
2022/01/26 20:10:51;;;;;;;78.18;48.58;;;;;;;;;;4993975;28;20872;-84